createdAt,value
2018-03-25T00:01:39.031Z,69.31
2018-03-25T00:04:07.420Z,69.15
2018-03-25T00:06:35.795Z,69.77
2018-03-25T00:09:04.136Z,69.68
2018-03-25T00:11:32.513Z,70.36
2018-03-25T00:14:00.870Z,70.69
2018-03-25T00:16:29.270Z,70.80
2018-03-25T00:18:57.596Z,70.85
2018-03-25T00:21:25.930Z,71.29
2018-03-25T00:23:54.296Z,70.98
2018-03-25T00:26:22.655Z,71.17
2018-03-25T00:28:50.992Z,71.39
2018-03-25T00:31:19.370Z,71.27
2018-03-25T00:33:47.721Z,71.05
2018-03-25T00:36:16.103Z,70.46
2018-03-25T00:38:45.393Z,70.67
2018-03-25T00:41:13.788Z,70.42
2018-03-25T00:43:42.103Z,70.65
2018-03-25T00:46:10.471Z,71.82
2018-03-25T00:48:38.807Z,71.97
2018-03-25T00:51:07.154Z,72.07
2018-03-25T00:53:35.530Z,72.23
2018-03-25T00:56:03.874Z,71.83
2018-03-25T00:58:32.219Z,71.99
2018-03-25T01:01:00.576Z,71.89
2018-03-25T01:03:28.894Z,71.27
2018-03-25T01:05:57.252Z,71.15
2018-03-25T01:08:26.586Z,70.85
2018-03-25T01:10:54.966Z,70.78
2018-03-25T01:13:23.345Z,71.82
2018-03-25T01:16:03.648Z,71.69
2018-03-25T01:18:31.992Z,72.40
2018-03-25T01:21:00.355Z,73.22
2018-03-25T01:23:28.700Z,73.15
2018-03-25T01:25:57.043Z,73.06
2018-03-25T01:28:25.486Z,72.93
2018-03-25T01:30:53.855Z,71.45
2018-03-25T01:33:22.226Z,71.77
2018-03-25T01:35:50.623Z,72.36
2018-03-25T01:38:18.998Z,72.14
2018-03-25T01:40:47.394Z,71.50
2018-03-25T01:43:15.708Z,71.60
2018-03-25T01:45:44.094Z,71.99
2018-03-25T01:48:12.506Z,71.98
2018-03-25T01:50:40.881Z,72.56
2018-03-25T01:53:09.266Z,72.54
2018-03-25T01:55:37.644Z,72.57
2018-03-25T01:58:06.049Z,72.30
2018-03-25T02:00:34.431Z,73.03
2018-03-25T02:03:02.779Z,73.75
2018-03-25T02:05:31.162Z,74.46
2018-03-25T02:07:59.511Z,74.67
2018-03-25T02:10:27.835Z,74.40
2018-03-25T02:12:56.191Z,74.32
2018-03-25T02:15:24.523Z,74.14
2018-03-25T02:17:52.952Z,73.77
2018-03-25T02:20:21.283Z,73.83
2018-03-25T02:22:49.634Z,73.80
2018-03-25T02:25:17.954Z,73.79
2018-03-25T02:27:46.378Z,73.92
2018-03-25T02:30:14.743Z,74.08
2018-03-25T02:32:43.162Z,74.35
2018-03-25T02:35:11.454Z,74.87
2018-03-25T02:37:39.807Z,74.38
2018-03-25T02:40:08.149Z,74.13
2018-03-25T02:42:36.542Z,74.19
2018-03-25T02:45:04.911Z,74.31
2018-03-25T02:47:33.252Z,73.88
2018-03-25T02:50:01.680Z,73.86
2018-03-25T02:52:29.996Z,74.63
2018-03-25T02:54:58.427Z,74.11
2018-03-25T02:57:27.520Z,74.94
2018-03-25T02:59:55.889Z,76.04
2018-03-25T03:02:24.212Z,75.83
2018-03-25T03:04:52.547Z,75.41
2018-03-25T03:07:20.894Z,75.74
2018-03-25T03:09:49.210Z,75.59
2018-03-25T03:12:17.568Z,75.49
2018-03-25T03:14:45.887Z,75.54
2018-03-25T03:17:14.334Z,75.47
2018-03-25T03:19:42.657Z,75.24
2018-03-25T03:22:10.997Z,75.33
2018-03-25T03:24:39.371Z,75.93
2018-03-25T03:27:07.731Z,75.58
2018-03-25T03:29:36.063Z,75.49
2018-03-25T03:32:04.395Z,76.00
2018-03-25T03:34:32.735Z,75.51
2018-03-25T03:37:01.056Z,76.53
2018-03-25T03:39:29.431Z,76.66
2018-03-25T03:41:57.754Z,76.46
2018-03-25T03:44:26.113Z,75.36
2018-03-25T03:46:54.435Z,74.76
2018-03-25T03:49:22.854Z,75.45
2018-03-25T03:51:51.226Z,75.40
2018-03-25T03:54:19.606Z,75.11
2018-03-25T03:56:48.008Z,76.35
2018-03-25T03:59:16.366Z,76.30
2018-03-25T04:01:44.756Z,76.29
2018-03-25T04:04:13.120Z,76.05
2018-03-25T04:06:41.475Z,76.18
2018-03-25T04:09:09.876Z,76.24
2018-03-25T04:11:38.227Z,76.27
2018-03-25T04:14:06.643Z,76.35
2018-03-25T04:16:35.015Z,76.03
2018-03-25T04:19:03.338Z,76.52
2018-03-25T04:21:31.658Z,76.65
2018-03-25T04:23:59.998Z,76.78
2018-03-25T04:26:28.322Z,77.21
2018-03-25T04:28:56.702Z,77.19
2018-03-25T04:31:25.078Z,76.55
2018-03-25T04:33:53.488Z,76.61
2018-03-25T04:36:21.814Z,77.28
2018-03-25T04:38:50.217Z,77.76
2018-03-25T04:41:18.597Z,77.78
2018-03-25T04:43:46.966Z,77.67
2018-03-25T04:46:15.348Z,76.41
2018-03-25T04:48:43.672Z,76.39
2018-03-25T04:51:12.099Z,76.48
2018-03-25T04:53:40.431Z,76.94
2018-03-25T04:56:08.906Z,78.18
2018-03-25T04:58:37.232Z,77.48
2018-03-25T05:01:05.575Z,76.48
2018-03-25T05:03:33.902Z,76.44
2018-03-25T05:06:02.258Z,76.66
2018-03-25T05:08:30.974Z,76.75
2018-03-25T05:10:59.390Z,77.39
2018-03-25T05:13:27.794Z,77.02
2018-03-25T05:15:56.190Z,76.96
2018-03-25T05:18:24.566Z,76.86
2018-03-25T05:20:52.946Z,77.49
2018-03-25T05:23:21.338Z,77.04
2018-03-25T05:25:49.706Z,77.09
2018-03-25T05:28:18.079Z,76.90
2018-03-25T05:30:46.419Z,76.46
2018-03-25T05:33:14.771Z,76.64
2018-03-25T05:35:43.103Z,76.34
2018-03-25T05:38:11.759Z,76.10
2018-03-25T05:40:40.800Z,75.77
2018-03-25T05:43:09.188Z,75.66
2018-03-25T05:45:37.575Z,76.36
2018-03-25T05:48:05.930Z,76.37
2018-03-25T05:50:34.302Z,76.57
2018-03-25T05:53:02.639Z,76.94
2018-03-25T05:55:30.978Z,76.65
2018-03-25T05:57:59.342Z,76.18
2018-03-25T06:00:27.699Z,76.23
2018-03-25T06:02:56.110Z,76.13
2018-03-25T06:05:24.484Z,76.43
2018-03-25T06:07:52.807Z,75.96
2018-03-25T06:10:21.177Z,75.79
2018-03-25T06:12:49.483Z,74.78
2018-03-25T06:15:17.811Z,73.84
2018-03-25T06:17:46.171Z,73.75
2018-03-25T06:20:14.503Z,71.30
2018-03-25T06:22:42.850Z,71.65
2018-03-25T06:25:11.291Z,71.46
2018-03-25T06:27:39.671Z,70.06
2018-03-25T06:30:08.003Z,69.87
2018-03-25T06:32:36.345Z,69.76
2018-03-25T06:35:04.707Z,69.72
2018-03-25T06:37:33.086Z,69.01
2018-03-25T06:40:01.475Z,68.68
2018-03-25T06:42:29.810Z,69.02
2018-03-25T06:44:58.149Z,68.86
2018-03-25T06:47:26.475Z,68.64
2018-03-25T06:49:54.879Z,68.44
2018-03-25T06:52:23.208Z,68.27
2018-03-25T06:54:51.521Z,68.09
2018-03-25T06:57:19.904Z,67.79
2018-03-25T06:59:48.399Z,67.06
2018-03-25T07:02:16.750Z,66.77
2018-03-25T07:04:45.083Z,66.44
2018-03-25T07:07:13.426Z,66.17
2018-03-25T07:09:41.747Z,65.98
2018-03-25T07:12:10.092Z,65.56
2018-03-25T07:14:38.413Z,65.21
2018-03-25T07:17:06.762Z,64.47
2018-03-25T07:19:35.091Z,64.42
2018-03-25T07:22:03.458Z,63.90
2018-03-25T07:24:31.784Z,63.82
2018-03-25T07:27:00.103Z,62.64
2018-03-25T07:29:28.462Z,62.25
2018-03-25T07:31:56.779Z,61.88
2018-03-25T07:34:25.175Z,61.62
2018-03-25T07:36:53.543Z,61.56
2018-03-25T07:39:21.889Z,61.37
2018-03-25T07:41:50.230Z,61.77
2018-03-25T07:44:18.590Z,61.40
2018-03-25T07:46:46.962Z,61.42
2018-03-25T07:49:15.323Z,60.93
2018-03-25T07:51:43.732Z,60.71
2018-03-25T07:54:12.062Z,60.80
2018-03-25T07:56:40.472Z,60.96
2018-03-25T07:59:08.858Z,60.86
2018-03-25T08:01:37.216Z,60.46
2018-03-25T08:04:05.605Z,59.88
2018-03-25T08:06:33.958Z,59.76
2018-03-25T08:09:02.273Z,59.15
2018-03-25T08:11:30.621Z,58.71
2018-03-25T08:13:58.961Z,58.33
2018-03-25T08:16:27.291Z,57.69
2018-03-25T08:18:55.675Z,56.17
2018-03-25T08:21:24.014Z,55.64
2018-03-25T08:23:52.344Z,55.77
2018-03-25T08:26:20.690Z,56.34
2018-03-25T08:28:49.020Z,54.97
2018-03-25T08:31:17.360Z,54.51
2018-03-25T08:33:45.709Z,54.25
2018-03-25T08:36:14.262Z,53.22
2018-03-25T08:38:42.594Z,52.26
2018-03-25T08:41:10.921Z,51.78
2018-03-25T08:43:39.278Z,52.25
2018-03-25T08:46:07.600Z,51.53
2018-03-25T08:48:36.019Z,50.05
2018-03-25T08:51:04.333Z,49.16
2018-03-25T08:53:32.773Z,50.09
2018-03-25T08:56:01.143Z,48.66
2018-03-25T08:58:29.501Z,47.29
2018-03-25T09:00:57.911Z,47.76
2018-03-25T09:03:26.284Z,48.18
2018-03-25T09:05:54.631Z,49.04
2018-03-25T09:08:22.958Z,48.02
2018-03-25T09:10:51.354Z,47.30
2018-03-25T09:13:19.726Z,48.30
2018-03-25T09:15:48.070Z,47.17
2018-03-25T09:18:16.478Z,47.25
2018-03-25T09:20:44.871Z,46.80
2018-03-25T09:23:13.213Z,45.79
2018-03-25T09:25:41.698Z,46.59
2018-03-25T09:28:10.043Z,46.26
2018-03-25T09:30:38.419Z,46.65
2018-03-25T09:33:06.747Z,46.23
2018-03-25T09:35:35.073Z,45.76
2018-03-25T09:38:03.486Z,44.92
2018-03-25T09:40:31.811Z,44.18
2018-03-25T09:43:00.158Z,45.17
2018-03-25T09:45:28.471Z,44.80
2018-03-25T09:47:56.896Z,45.13
2018-03-25T09:50:25.228Z,42.92
2018-03-25T09:52:53.683Z,43.08
2018-03-25T09:55:21.998Z,44.20
2018-03-25T09:57:50.353Z,42.74
2018-03-25T10:00:18.676Z,42.97
2018-03-25T10:02:49.806Z,43.76
2018-03-25T10:05:19.211Z,42.65
2018-03-25T10:07:47.547Z,41.85
2018-03-25T10:10:15.880Z,42.53
2018-03-25T10:12:44.235Z,42.10
2018-03-25T10:15:12.551Z,42.03
2018-03-25T10:17:40.912Z,40.79
2018-03-25T10:20:09.271Z,41.02
2018-03-25T10:22:37.591Z,39.65
2018-03-25T10:25:05.931Z,40.39
2018-03-25T10:27:34.270Z,40.79
2018-03-25T10:30:02.686Z,40.28
2018-03-25T10:32:31.026Z,40.75
2018-03-25T10:34:59.370Z,40.92
2018-03-25T10:37:27.790Z,43.63
2018-03-25T10:39:56.206Z,37.49
2018-03-25T10:42:24.584Z,41.65
2018-03-25T10:44:53.028Z,38.46
2018-03-25T10:47:21.487Z,38.33
2018-03-25T10:49:49.823Z,37.65
2018-03-25T10:52:18.178Z,37.98
2018-03-25T10:54:46.587Z,38.18
2018-03-25T10:57:14.919Z,38.76
2018-03-25T10:59:43.270Z,37.60
2018-03-25T11:02:11.594Z,39.11
2018-03-25T11:04:40.007Z,37.87
2018-03-25T11:07:08.375Z,38.61
2018-03-25T11:09:36.735Z,37.34
2018-03-25T11:12:05.064Z,35.82
2018-03-25T11:14:33.825Z,34.97
2018-03-25T11:17:02.153Z,35.70
2018-03-25T11:19:30.695Z,35.08
2018-03-25T11:21:59.070Z,34.31
2018-03-25T11:24:27.400Z,34.19
2018-03-25T11:26:55.768Z,36.04
2018-03-25T11:29:24.194Z,36.65
2018-03-25T11:31:52.615Z,34.43
2018-03-25T11:34:20.927Z,33.57
2018-03-25T11:36:49.286Z,33.37
2018-03-25T11:39:17.751Z,32.97
2018-03-25T11:41:46.120Z,32.14
2018-03-25T11:44:14.467Z,31.30
2018-03-25T11:46:42.843Z,31.19
2018-03-25T11:49:11.164Z,30.74
2018-03-25T11:51:39.521Z,30.04
2018-03-25T11:54:07.858Z,30.25
2018-03-25T11:56:36.252Z,29.61
2018-03-25T11:59:04.660Z,28.95
2018-03-25T12:01:32.990Z,27.40
2018-03-25T12:04:01.326Z,26.34
2018-03-25T12:06:29.692Z,27.81
2018-03-25T12:08:58.035Z,26.10
2018-03-25T12:11:26.415Z,25.88
2018-03-25T12:13:54.799Z,24.31
2018-03-25T12:16:23.238Z,23.07
2018-03-25T12:18:51.586Z,22.10
2018-03-25T12:21:19.970Z,23.46
2018-03-25T12:23:48.359Z,23.46
2018-03-25T12:26:16.674Z,23.20
2018-03-25T12:28:45.029Z,21.88
2018-03-25T12:31:13.358Z,21.53
2018-03-25T12:33:41.705Z,22.11
2018-03-25T12:36:10.038Z,21.39
2018-03-25T12:38:38.462Z,21.92
2018-03-25T12:41:06.752Z,20.84
2018-03-25T12:43:35.104Z,20.82
2018-03-25T12:46:03.549Z,21.62
2018-03-25T12:48:31.952Z,21.11
2018-03-25T12:51:00.407Z,20.54
2018-03-25T12:53:28.855Z,20.63
2018-03-25T12:55:57.227Z,20.49
2018-03-25T12:58:25.645Z,19.48
2018-03-25T13:00:53.983Z,19.13
2018-03-25T13:03:22.335Z,19.29
2018-03-25T13:05:50.827Z,19.07
2018-03-25T13:08:19.159Z,18.63
2018-03-25T13:10:47.486Z,18.39
2018-03-25T13:13:15.990Z,19.74
2018-03-25T13:15:44.322Z,18.96
2018-03-25T13:18:12.681Z,17.72
2018-03-25T13:20:41.070Z,18.60
2018-03-25T13:23:09.386Z,17.03
2018-03-25T13:25:37.744Z,18.07
2018-03-25T13:28:06.154Z,16.90
2018-03-25T13:30:34.531Z,17.28
2018-03-25T13:33:02.855Z,17.75
2018-03-25T13:35:31.343Z,17.17
2018-03-25T13:37:59.669Z,16.89
2018-03-25T13:40:28.043Z,17.19
2018-03-25T13:42:56.375Z,17.25
2018-03-25T13:45:24.715Z,17.08
2018-03-25T13:47:53.086Z,16.73
2018-03-25T13:50:21.456Z,17.25
2018-03-25T13:52:49.864Z,16.59
2018-03-25T13:55:18.270Z,16.66
2018-03-25T13:57:46.626Z,16.48
2018-03-25T14:00:14.975Z,17.13
2018-03-25T14:02:43.333Z,17.52
2018-03-25T14:05:11.692Z,17.60
2018-03-25T14:07:40.023Z,16.50
2018-03-25T14:10:08.491Z,16.27
2018-03-25T14:12:36.818Z,17.30
2018-03-25T14:15:05.231Z,15.85
2018-03-25T14:17:33.609Z,16.43
2018-03-25T14:20:01.980Z,16.87
2018-03-25T14:22:30.339Z,16.03
2018-03-25T14:24:58.676Z,17.50
2018-03-25T14:27:27.892Z,17.79
2018-03-25T14:29:56.292Z,17.06
2018-03-25T14:32:24.582Z,16.68
2018-03-25T14:34:52.912Z,16.89
2018-03-25T14:37:21.352Z,17.57
2018-03-25T14:39:49.844Z,18.16
2018-03-25T14:42:18.197Z,18.50
2018-03-25T14:44:46.541Z,17.64
2018-03-25T14:47:15.005Z,16.63
2018-03-25T14:49:43.357Z,16.29
2018-03-25T14:52:11.769Z,17.82
2018-03-25T14:54:40.105Z,17.66
2018-03-25T14:57:08.523Z,17.01
2018-03-25T14:59:36.859Z,17.29
2018-03-25T15:02:05.263Z,17.07
2018-03-25T15:04:33.656Z,16.95
2018-03-25T15:07:02.105Z,16.70
2018-03-25T15:09:30.442Z,15.92
2018-03-25T15:11:58.814Z,16.58
2018-03-25T15:14:27.238Z,17.63
2018-03-25T15:16:55.572Z,17.84
2018-03-25T15:19:23.990Z,17.88
2018-03-25T15:21:52.408Z,21.36
2018-03-25T15:24:20.850Z,20.72
2018-03-25T15:26:49.189Z,19.71
2018-03-25T15:29:17.547Z,20.99
2018-03-25T15:31:45.935Z,19.02
2018-03-25T15:34:14.274Z,19.19
2018-03-25T15:36:42.606Z,19.27
2018-03-25T15:39:11.576Z,19.39
2018-03-25T15:41:40.026Z,18.74
2018-03-25T15:44:08.383Z,17.57
2018-03-25T15:46:36.706Z,18.93
2018-03-25T15:49:05.161Z,19.70
2018-03-25T15:51:33.477Z,20.46
2018-03-25T15:54:01.903Z,19.79
2018-03-25T15:56:30.302Z,19.67
2018-03-25T15:58:58.698Z,19.95
2018-03-25T16:01:27.019Z,19.61
2018-03-25T16:03:55.382Z,20.32
2018-03-25T16:06:23.718Z,20.06
2018-03-25T16:08:52.068Z,20.46
2018-03-25T16:11:20.404Z,20.45
2018-03-25T16:13:48.823Z,21.27
2018-03-25T16:16:17.504Z,20.54
2018-03-25T16:18:45.887Z,21.53
2018-03-25T16:21:14.253Z,21.89
2018-03-25T16:23:42.633Z,21.67
2018-03-25T16:26:10.967Z,22.00
2018-03-25T16:28:39.298Z,22.84
2018-03-25T16:31:07.663Z,22.93
2018-03-25T16:33:36.007Z,23.36
2018-03-25T16:36:04.453Z,24.22
2018-03-25T16:38:32.778Z,25.05
2018-03-25T16:41:01.135Z,25.55
2018-03-25T16:43:29.458Z,26.60
2018-03-25T16:45:57.848Z,27.15
2018-03-25T16:48:26.213Z,28.11
2018-03-25T16:50:54.596Z,29.20
2018-03-25T16:53:22.972Z,29.95
2018-03-25T16:55:51.330Z,31.23
2018-03-25T16:58:19.660Z,31.92
2018-03-25T17:00:47.996Z,32.17
2018-03-25T17:03:16.318Z,32.66
2018-03-25T17:05:44.679Z,33.08
2018-03-25T17:08:13.028Z,33.68
2018-03-25T17:10:41.391Z,33.97
2018-03-25T17:13:09.805Z,35.21
2018-03-25T17:15:38.127Z,35.91
2018-03-25T17:18:06.579Z,36.60
2018-03-25T17:20:34.946Z,37.25
2018-03-25T17:23:03.297Z,38.67
2018-03-25T17:25:31.623Z,38.23
2018-03-25T17:28:00.072Z,38.86
2018-03-25T17:30:28.422Z,38.77
2018-03-25T17:32:56.782Z,39.05
2018-03-25T17:35:25.143Z,39.51
2018-03-25T17:37:53.518Z,39.78
2018-03-25T17:40:21.862Z,40.13
2018-03-25T17:42:50.262Z,40.74
2018-03-25T17:45:18.596Z,40.47
2018-03-25T17:47:46.967Z,40.71
2018-03-25T17:50:15.379Z,40.96
2018-03-25T17:52:43.723Z,41.94
2018-03-25T17:55:12.122Z,41.54
2018-03-25T17:57:40.512Z,41.79
2018-03-25T18:00:08.883Z,41.85
2018-03-25T18:02:37.238Z,41.85
2018-03-25T18:05:05.559Z,41.69
2018-03-25T18:07:36.758Z,42.17
2018-03-25T18:10:05.162Z,42.07
2018-03-25T18:12:33.555Z,42.32
2018-03-25T18:15:01.888Z,42.10
2018-03-25T18:17:34.104Z,42.63
2018-03-25T18:19:58.716Z,42.82
2018-03-25T18:22:27.057Z,43.25
2018-03-25T18:24:55.454Z,43.47
2018-03-25T18:27:23.779Z,43.52
2018-03-25T18:29:52.164Z,44.00
2018-03-25T18:32:20.496Z,45.39
2018-03-25T18:34:48.847Z,45.35
2018-03-25T18:37:17.229Z,45.35
2018-03-25T18:39:45.564Z,45.10
2018-03-25T18:42:13.891Z,45.38
2018-03-25T18:44:42.247Z,45.85
2018-03-25T18:47:10.578Z,45.98
2018-03-25T18:49:38.929Z,46.88
2018-03-25T18:52:07.244Z,46.88
2018-03-25T18:54:35.674Z,47.31
2018-03-25T18:57:03.995Z,47.58
2018-03-25T18:59:32.461Z,47.45
2018-03-25T19:02:00.866Z,47.65
2018-03-25T19:04:29.211Z,48.45
2018-03-25T19:06:57.545Z,48.82
2018-03-25T19:12:00.055Z,48.94
2018-03-25T19:14:28.420Z,48.92
2018-03-25T19:16:56.849Z,49.12
2018-03-25T19:19:25.170Z,49.84
2018-03-25T19:21:53.505Z,49.51
2018-03-25T19:24:21.884Z,49.98
2018-03-25T19:26:50.200Z,50.23
2018-03-25T19:29:18.520Z,50.43
2018-03-25T19:31:46.863Z,50.31
2018-03-25T19:34:15.181Z,50.68
2018-03-25T19:36:43.667Z,50.62
2018-03-25T19:39:11.984Z,51.89
2018-03-25T19:41:40.326Z,52.12
2018-03-25T19:44:08.666Z,52.18
2018-03-25T19:46:36.995Z,51.54
2018-03-25T19:49:05.314Z,52.00
2018-03-25T19:51:33.666Z,51.65
2018-03-25T19:54:02.074Z,52.01
2018-03-25T19:56:30.466Z,51.92
2018-03-25T19:58:58.822Z,52.19
2018-03-25T20:01:27.167Z,52.27
2018-03-25T20:03:55.588Z,52.55
2018-03-25T20:06:24.836Z,52.54
2018-03-25T20:08:53.168Z,52.52
2018-03-25T20:11:21.499Z,53.11
2018-03-25T20:13:49.882Z,53.20
2018-03-25T20:16:18.234Z,54.04
2018-03-25T20:18:46.559Z,53.55
2018-03-25T20:21:14.913Z,53.58
2018-03-25T20:23:43.226Z,54.09
2018-03-25T20:26:11.607Z,53.44
2018-03-25T20:28:40.010Z,53.54
2018-03-25T20:31:08.350Z,55.07
2018-03-25T20:33:36.710Z,54.77
2018-03-25T20:36:05.122Z,54.55
2018-03-25T20:38:33.454Z,54.97
2018-03-25T20:41:01.882Z,54.59
2018-03-25T20:43:30.305Z,54.50
2018-03-25T20:45:58.736Z,54.55
2018-03-25T20:48:27.076Z,55.26
2018-03-25T20:50:55.403Z,55.10
2018-03-25T20:53:23.745Z,55.15
2018-03-25T20:55:52.218Z,55.33
2018-03-25T20:58:20.575Z,55.32
2018-03-25T21:00:48.913Z,56.03
2018-03-25T21:03:17.271Z,55.86
2018-03-25T21:05:45.650Z,55.23
2018-03-25T21:08:14.066Z,54.91
2018-03-25T21:10:42.385Z,55.08
2018-03-25T21:13:10.734Z,55.22
2018-03-25T21:15:39.059Z,56.18
2018-03-25T21:18:07.388Z,56.38
2018-03-25T21:20:35.824Z,56.31
2018-03-25T21:23:04.152Z,56.62
2018-03-25T21:25:32.503Z,56.65
2018-03-25T21:28:00.821Z,56.33
2018-03-25T21:30:29.154Z,56.68
2018-03-25T21:32:57.515Z,56.68
2018-03-25T21:35:25.891Z,56.69
2018-03-25T21:37:54.212Z,56.48
2018-03-25T21:40:22.558Z,57.91
2018-03-25T21:42:50.887Z,57.65
2018-03-25T21:45:19.318Z,56.89
2018-03-25T21:47:47.634Z,57.16
2018-03-25T21:50:15.976Z,57.62
2018-03-25T21:52:44.286Z,58.29
2018-03-25T21:55:12.625Z,57.86
2018-03-25T21:57:40.955Z,57.67
2018-03-25T22:00:10.211Z,57.76
2018-03-25T22:02:38.519Z,57.38
2018-03-25T22:05:06.863Z,57.77
2018-03-25T22:07:35.195Z,57.52
2018-03-25T22:10:03.575Z,57.82
2018-03-25T22:12:31.887Z,57.56
2018-03-25T22:15:00.293Z,57.83
2018-03-25T22:17:28.632Z,58.14
2018-03-25T22:19:56.962Z,58.33
2018-03-25T22:22:25.304Z,58.09
2018-03-25T22:24:53.620Z,58.67
2018-03-25T22:27:21.968Z,58.88
2018-03-25T22:29:50.288Z,58.71
2018-03-25T22:32:18.694Z,58.56
2018-03-25T22:34:47.022Z,58.55
2018-03-25T22:37:15.364Z,58.91
2018-03-25T22:39:43.719Z,58.93
2018-03-25T22:42:12.077Z,59.00
2018-03-25T22:44:40.415Z,59.22
2018-03-25T22:47:08.745Z,58.79
2018-03-25T22:49:37.067Z,58.83
2018-03-25T22:52:05.514Z,59.57
2018-03-25T22:54:33.844Z,60.07
2018-03-25T22:57:02.166Z,60.13
2018-03-25T22:59:30.502Z,59.90
2018-03-25T23:01:58.844Z,59.84
2018-03-25T23:04:27.170Z,60.66
2018-03-25T23:06:55.511Z,60.66
2018-03-25T23:09:23.857Z,60.92
2018-03-25T23:11:52.193Z,60.99
2018-03-25T23:14:20.619Z,60.62
2018-03-25T23:16:48.991Z,60.64
2018-03-25T23:19:17.367Z,59.92
2018-03-25T23:21:45.713Z,60.20
2018-03-25T23:24:14.059Z,60.77
2018-03-25T23:26:42.422Z,59.71
2018-03-25T23:29:10.778Z,59.52
2018-03-25T23:31:39.102Z,60.49
2018-03-25T23:34:07.538Z,59.96
2018-03-25T23:36:35.858Z,60.08
2018-03-25T23:39:04.211Z,60.10
2018-03-25T23:41:32.630Z,60.38
2018-03-25T23:44:00.972Z,60.53
2018-03-25T23:46:29.306Z,60.17
2018-03-25T23:48:57.703Z,61.37
2018-03-25T23:51:26.019Z,61.33
2018-03-25T23:53:54.366Z,61.06
2018-03-25T23:56:22.695Z,60.34
2018-03-25T23:58:51.118Z,60.99
